sensor_id;sensor_type;location;lat;lon;timestamp;pressure;altitude;pressure_sealevel;temperature;humidity
3178;BME280;38141;42.666;23.344;2023-12-20T00:01:07;95023.53;;;0.88;100.00
3178;BME280;38141;42.666;23.344;2023-12-20T00:03:34;95018.53;;;0.95;100.00
3178;BME280;38141;42.666;23.344;2023-12-20T00:06:01;95016.19;;;0.94;100.00
3178;BME280;38141;42.666;23.344;2023-12-20T00:08:28;95021.81;;;0.92;100.00
3178;BME280;38141;42.666;23.344;2023-12-20T00:10:55;95009.28;;;0.93;100.00
3178;BME280;38141;42.666;23.344;2023-12-20T00:13:24;95003.16;;;1.01;100.00
3178;BME280;38141;42.666;23.344;2023-12-20T00:15:51;95006.31;;;1.03;100.00
3178;BME280;38141;42.666;23.344;2023-12-20T00:18:18;95010.53;;;0.95;100.00
3178;BME280;38141;42.666;23.344;2023-12-20T00:20:45;95008.34;;;0.88;100.00
3178;BME280;38141;42.666;23.344;2023-12-20T00:23:12;94997.22;;;0.95;100.00
3178;BME280;38141;42.666;23.344;2023-12-20T00:25:38;94995.16;;;1.01;100.00
3178;BME280;38141;42.666;23.344;2023-12-20T00:28:06;94992.50;;;0.92;100.00
3178;BME280;38141;42.666;23.344;2023-12-20T00:30:34;94980.91;;;0.88;100.00
3178;BME280;38141;42.666;23.344;2023-12-20T00:33:01;94983.56;;;1.05;100.00
3178;BME280;38141;42.666;23.344;2023-12-20T00:35:28;94982.34;;;0.94;100.00
3178;BME280;38141;42.666;23.344;2023-12-20T00:37:55;94977.81;;;0.86;100.00
3178;BME280;38141;42.666;23.344;2023-12-20T00:40:23;94979.84;;;0.72;100.00
3178;BME280;38141;42.666;23.344;2023-12-20T00:42:50;94960.88;;;0.65;100.00
3178;BME280;38141;42.666;23.344;2023-12-20T00:45:17;94970.13;;;0.84;100.00
3178;BME280;38141;42.666;23.344;2023-12-20T00:47:45;94963.06;;;0.71;100.00
3178;BME280;38141;42.666;23.344;2023-12-20T00:50:12;94964.16;;;0.53;100.00
3178;BME280;38141;42.666;23.344;2023-12-20T00:52:39;94962.91;;;0.59;100.00
3178;BME280;38141;42.666;23.344;2023-12-20T00:55:07;94963.22;;;0.58;100.00
3178;BME280;38141;42.666;23.344;2023-12-20T00:57:34;94959.47;;;0.67;100.00
3178;BME280;38141;42.666;23.344;2023-12-20T01:00:01;94956.81;;;0.76;100.00
3178;BME280;38141;42.666;23.344;2023-12-20T01:02:28;94958.69;;;0.84;100.00
3178;BME280;38141;42.666;23.344;2023-12-20T01:04:57;94943.50;;;0.93;100.00
3178;BME280;38141;42.666;23.344;2023-12-20T01:07:24;94943.97;;;1.04;100.00
3178;BME280;38141;42.666;23.344;2023-12-20T01:09:51;94945.81;;;1.12;100.00
3178;BME280;38141;42.666;23.344;2023-12-20T01:12:18;94939.56;;;1.08;100.00
3178;BME280;38141;42.666;23.344;2023-12-20T01:14:45;94942.06;;;1.13;100.00
3178;BME280;38141;42.666;23.344;2023-12-20T01:17:12;94938.44;;;1.17;100.00
3178;BME280;38141;42.666;23.344;2023-12-20T01:19:39;94934.09;;;1.04;100.00
3178;BME280;38141;42.666;23.344;2023-12-20T01:22:08;94936.59;;;0.92;100.00
3178;BME280;38141;42.666;23.344;2023-12-20T01:24:35;94929.09;;;0.77;100.00
3178;BME280;38141;42.666;23.344;2023-12-20T01:27:02;94921.88;;;0.43;100.00
3178;BME280;38141;42.666;23.344;2023-12-20T01:29:29;94918.59;;;0.29;100.00
3178;BME280;38141;42.666;23.344;2023-12-20T01:31:56;94923.75;;;0.34;100.00
3178;BME280;38141;42.666;23.344;2023-12-20T01:34:23;94917.00;;;0.19;100.00
3178;BME280;38141;42.666;23.344;2023-12-20T01:36:50;94911.53;;;0.16;100.00
3178;BME280;38141;42.666;23.344;2023-12-20T01:39:18;94912.75;;;0.10;100.00
3178;BME280;38141;42.666;23.344;2023-12-20T01:41:45;94892.78;;;0.29;100.00
3178;BME280;38141;42.666;23.344;2023-12-20T01:44:12;94899.19;;;0.45;100.00
3178;BME280;38141;42.666;23.344;2023-12-20T01:46:39;94893.25;;;0.31;100.00
3178;BME280;38141;42.666;23.344;2023-12-20T01:49:07;94891.84;;;0.34;100.00
3178;BME280;38141;42.666;23.344;2023-12-20T01:51:34;94883.84;;;0.42;100.00
3178;BME280;38141;42.666;23.344;2023-12-20T01:54:02;94880.72;;;0.58;100.00
3178;BME280;38141;42.666;23.344;2023-12-20T01:56:32;94871.03;;;0.36;100.00
3178;BME280;38141;42.666;23.344;2023-12-20T01:59:00;94877.75;;;0.33;100.00
3178;BME280;38141;42.666;23.344;2023-12-20T02:01:28;94874.16;;;0.47;100.00
3178;BME280;38141;42.666;23.344;2023-12-20T02:03:55;94879.97;;;0.31;100.00
3178;BME280;38141;42.666;23.344;2023-12-20T02:06:23;94866.78;;;0.09;100.00
3178;BME280;38141;42.666;23.344;2023-12-20T02:08:51;94868.03;;;-0.06;100.00
3178;BME280;38141;42.666;23.344;2023-12-20T02:11:18;94870.34;;;-0.04;100.00
3178;BME280;38141;42.666;23.344;2023-12-20T02:13:46;94865.22;;;0.08;100.00
3178;BME280;38141;42.666;23.344;2023-12-20T02:16:13;94849.56;;;0.07;100.00
3178;BME280;38141;42.666;23.344;2023-12-20T02:18:42;94854.44;;;0.22;100.00
3178;BME280;38141;42.666;23.344;2023-12-20T02:21:09;94860.41;;;0.36;100.00
3178;BME280;38141;42.666;23.344;2023-12-20T02:23:38;94856.47;;;0.08;100.00
3178;BME280;38141;42.666;23.344;2023-12-20T02:26:05;94852.72;;;0.17;100.00
3178;BME280;38141;42.666;23.344;2023-12-20T02:28:32;94855.97;;;0.06;100.00
3178;BME280;38141;42.666;23.344;2023-12-20T02:31:00;94847.06;;;-0.16;100.00
3178;BME280;38141;42.666;23.344;2023-12-20T02:33:27;94838.28;;;-0.08;100.00
3178;BME280;38141;42.666;23.344;2023-12-20T02:35:54;94842.81;;;-0.08;100.00
3178;BME280;38141;42.666;23.344;2023-12-20T02:38:21;94839.38;;;-0.09;100.00
3178;BME280;38141;42.666;23.344;2023-12-20T02:40:49;94834.25;;;0.04;100.00
3178;BME280;38141;42.666;23.344;2023-12-20T02:43:16;94832.97;;;-0.08;100.00
3178;BME280;38141;42.666;23.344;2023-12-20T02:45:43;94823.91;;;0.11;100.00
3178;BME280;38141;42.666;23.344;2023-12-20T02:48:10;94824.22;;;0.00;100.00
3178;BME280;38141;42.666;23.344;2023-12-20T02:50:37;94829.88;;;-0.01;100.00
3178;BME280;38141;42.666;23.344;2023-12-20T02:53:04;94829.53;;;-0.08;100.00
3178;BME280;38141;42.666;23.344;2023-12-20T02:55:31;94832.53;;;-0.10;100.00
3178;BME280;38141;42.666;23.344;2023-12-20T02:58:00;94814.38;;;-0.08;100.00
3178;BME280;38141;42.666;23.344;2023-12-20T03:00:27;94817.03;;;0.01;100.00
3178;BME280;38141;42.666;23.344;2023-12-20T03:02:54;94828.94;;;0.04;100.00
3178;BME280;38141;42.666;23.344;2023-12-20T03:05:21;94828.00;;;0.08;100.00
3178;BME280;38141;42.666;23.344;2023-12-20T03:07:48;94824.06;;;-0.12;100.00
3178;BME280;38141;42.666;23.344;2023-12-20T03:10:15;94827.81;;;-0.13;100.00
3178;BME280;38141;42.666;23.344;2023-12-20T03:12:42;94834.69;;;-0.20;100.00
3178;BME280;38141;42.666;23.344;2023-12-20T03:15:10;94821.09;;;-0.19;100.00
3178;BME280;38141;42.666;23.344;2023-12-20T03:17:37;94829.25;;;0.02;100.00
3178;BME280;38141;42.666;23.344;2023-12-20T03:20:05;94824.84;;;-0.20;100.00
3178;BME280;38141;42.666;23.344;2023-12-20T03:22:33;94823.13;;;-0.24;100.00
3178;BME280;38141;42.666;23.344;2023-12-20T03:25:00;94819.97;;;-0.26;100.00
3178;BME280;38141;42.666;23.344;2023-12-20T03:27:27;94806.38;;;-0.25;100.00
3178;BME280;38141;42.666;23.344;2023-12-20T03:29:54;94815.44;;;-0.34;100.00
3178;BME280;38141;42.666;23.344;2023-12-20T03:32:23;94809.84;;;-0.07;100.00
3178;BME280;38141;42.666;23.344;2023-12-20T03:34:50;94818.72;;;-0.29;100.00
3178;BME280;38141;42.666;23.344;2023-12-20T03:37:16;94814.34;;;-0.25;100.00
3178;BME280;38141;42.666;23.344;2023-12-20T03:39:43;94812.94;;;-0.22;100.00
3178;BME280;38141;42.666;23.344;2023-12-20T03:42:10;94808.56;;;-0.35;100.00
3178;BME280;38141;42.666;23.344;2023-12-20T03:44:38;94814.53;;;-0.13;100.00
3178;BME280;38141;42.666;23.344;2023-12-20T03:47:05;94806.72;;;-0.09;100.00
3178;BME280;38141;42.666;23.344;2023-12-20T03:49:34;94809.34;;;-0.18;100.00
3178;BME280;38141;42.666;23.344;2023-12-20T03:52:02;94813.25;;;-0.32;100.00
3178;BME280;38141;42.666;23.344;2023-12-20T03:54:30;94810.25;;;-0.39;100.00
3178;BME280;38141;42.666;23.344;2023-12-20T03:56:57;94796.38;;;-0.36;100.00
3178;BME280;38141;42.666;23.344;2023-12-20T03:59:23;94798.25;;;-0.37;100.00
3178;BME280;38141;42.666;23.344;2023-12-20T04:01:50;94791.66;;;-0.48;100.00
3178;BME280;38141;42.666;23.344;2023-12-20T04:04:17;94804.16;;;-0.40;100.00
3178;BME280;38141;42.666;23.344;2023-12-20T04:06:46;94788.06;;;-0.35;100.00
3178;BME280;38141;42.666;23.344;2023-12-20T04:09:13;94788.72;;;-0.29;100.00
3178;BME280;38141;42.666;23.344;2023-12-20T04:11:40;94784.19;;;-0.37;100.00
3178;BME280;38141;42.666;23.344;2023-12-20T04:14:07;94787.75;;;-0.42;100.00
3178;BME280;38141;42.666;23.344;2023-12-20T04:16:34;94782.44;;;-0.59;100.00
3178;BME280;38141;42.666;23.344;2023-12-20T04:19:01;94775.88;;;-0.36;100.00
3178;BME280;38141;42.666;23.344;2023-12-20T04:21:28;94776.38;;;-0.34;100.00
3178;BME280;38141;42.666;23.344;2023-12-20T04:24:22;94779.94;;;-0.38;100.00
3178;BME280;38141;42.666;23.344;2023-12-20T04:26:49;94773.84;;;-0.48;100.00
3178;BME280;38141;42.666;23.344;2023-12-20T04:29:17;94771.50;;;-0.40;100.00
3178;BME280;38141;42.666;23.344;2023-12-20T04:31:44;94769.78;;;-0.45;100.00
3178;BME280;38141;42.666;23.344;2023-12-20T04:34:11;94763.34;;;-0.61;100.00
3178;BME280;38141;42.666;23.344;2023-12-20T04:36:38;94767.09;;;-0.62;100.00
3178;BME280;38141;42.666;23.344;2023-12-20T04:39:04;94762.72;;;-0.67;100.00
3178;BME280;38141;42.666;23.344;2023-12-20T04:41:33;94759.41;;;-0.72;100.00
3178;BME280;38141;42.666;23.344;2023-12-20T04:44:00;94749.94;;;-0.56;100.00
3178;BME280;38141;42.666;23.344;2023-12-20T04:46:27;94765.38;;;-0.50;100.00
3178;BME280;38141;42.666;23.344;2023-12-20T04:48:54;94758.06;;;-0.44;100.00
3178;BME280;38141;42.666;23.344;2023-12-20T04:51:21;94753.38;;;-0.56;100.00
3178;BME280;38141;42.666;23.344;2023-12-20T04:53:48;94733.97;;;-0.73;100.00
3178;BME280;38141;42.666;23.344;2023-12-20T04:56:15;94759.88;;;-0.79;100.00
3178;BME280;38141;42.666;23.344;2023-12-20T04:58:44;94752.56;;;-0.73;100.00
3178;BME280;38141;42.666;23.344;2023-12-20T05:01:11;94742.38;;;-0.71;100.00
3178;BME280;38141;42.666;23.344;2023-12-20T05:03:38;94754.25;;;-0.77;100.00
3178;BME280;38141;42.666;23.344;2023-12-20T05:06:06;94741.91;;;-0.82;100.00
3178;BME280;38141;42.666;23.344;2023-12-20T05:08:33;94740.66;;;-0.84;100.00
3178;BME280;38141;42.666;23.344;2023-12-20T05:11:00;94747.38;;;-0.87;100.00
3178;BME280;38141;42.666;23.344;2023-12-20T05:13:27;94742.19;;;-1.01;100.00
3178;BME280;38141;42.666;23.344;2023-12-20T05:15:55;94742.97;;;-1.00;100.00
3178;BME280;38141;42.666;23.344;2023-12-20T05:18:22;94736.72;;;-0.96;100.00
3178;BME280;38141;42.666;23.344;2023-12-20T05:20:49;94740.31;;;-1.00;100.00
3178;BME280;38141;42.666;23.344;2023-12-20T05:23:17;94737.13;;;-1.11;100.00
3178;BME280;38141;42.666;23.344;2023-12-20T05:25:45;94734.84;;;-0.95;100.00
3178;BME280;38141;42.666;23.344;2023-12-20T05:28:12;94732.19;;;-0.95;100.00
3178;BME280;38141;42.666;23.344;2023-12-20T05:30:39;94728.22;;;-1.23;100.00
3178;BME280;38141;42.666;23.344;2023-12-20T05:33:08;94720.28;;;-1.06;100.00
3178;BME280;38141;42.666;23.344;2023-12-20T05:35:35;94721.88;;;-1.05;100.00
3178;BME280;38141;42.666;23.344;2023-12-20T05:38:02;94722.50;;;-1.39;100.00
3178;BME280;38141;42.666;23.344;2023-12-20T05:40:29;94724.63;;;-1.19;100.00
3178;BME280;38141;42.666;23.344;2023-12-20T05:42:56;94727.81;;;-1.39;100.00
3178;BME280;38141;42.666;23.344;2023-12-20T05:45:23;94721.13;;;-1.37;100.00
3178;BME280;38141;42.666;23.344;2023-12-20T05:47:50;94729.81;;;-1.14;100.00
3178;BME280;38141;42.666;23.344;2023-12-20T05:50:19;94725.19;;;-1.30;100.00
3178;BME280;38141;42.666;23.344;2023-12-20T05:52:46;94722.97;;;-1.46;100.00
3178;BME280;38141;42.666;23.344;2023-12-20T05:55:13;94724.81;;;-1.55;100.00
3178;BME280;38141;42.666;23.344;2023-12-20T05:57:40;94713.75;;;-1.48;100.00
3178;BME280;38141;42.666;23.344;2023-12-20T06:00:09;94717.75;;;-1.20;100.00
3178;BME280;38141;42.666;23.344;2023-12-20T06:02:37;94703.22;;;-1.22;100.00
3178;BME280;38141;42.666;23.344;2023-12-20T06:05:04;94697.72;;;-1.35;100.00
3178;BME280;38141;42.666;23.344;2023-12-20T06:07:33;94711.97;;;-1.22;100.00
3178;BME280;38141;42.666;23.344;2023-12-20T06:10:00;94710.13;;;-1.04;100.00
3178;BME280;38141;42.666;23.344;2023-12-20T06:12:27;94685.31;;;-1.00;100.00
3178;BME280;38141;42.666;23.344;2023-12-20T06:14:54;94704.22;;;-1.01;100.00
3178;BME280;38141;42.666;23.344;2023-12-20T06:17:21;94697.22;;;-0.97;100.00
3178;BME280;38141;42.666;23.344;2023-12-20T06:19:48;94706.22;;;-1.15;100.00
3178;BME280;38141;42.666;23.344;2023-12-20T06:22:15;94712.19;;;-1.01;100.00
3178;BME280;38141;42.666;23.344;2023-12-20T06:24:44;94715.94;;;-1.02;100.00
3178;BME280;38141;42.666;23.344;2023-12-20T06:27:11;94698.91;;;-1.01;100.00
3178;BME280;38141;42.666;23.344;2023-12-20T06:29:38;94702.69;;;-0.85;100.00
3178;BME280;38141;42.666;23.344;2023-12-20T06:32:06;94717.72;;;-0.63;100.00
3178;BME280;38141;42.666;23.344;2023-12-20T06:34:33;94709.28;;;-0.57;100.00
3178;BME280;38141;42.666;23.344;2023-12-20T06:37:00;94715.53;;;-0.61;100.00
3178;BME280;38141;42.666;23.344;2023-12-20T06:39:27;94705.09;;;-0.32;100.00
3178;BME280;38141;42.666;23.344;2023-12-20T06:41:57;94705.06;;;-0.49;100.00
3178;BME280;38141;42.666;23.344;2023-12-20T06:44:24;94685.38;;;-0.48;100.00
3178;BME280;38141;42.666;23.344;2023-12-20T06:46:51;94701.81;;;-0.29;100.00
3178;BME280;38141;42.666;23.344;2023-12-20T06:49:18;94684.75;;;-0.54;100.00
3178;BME280;38141;42.666;23.344;2023-12-20T06:51:45;94695.72;;;-0.38;100.00
3178;BME280;38141;42.666;23.344;2023-12-20T06:54:12;94684.78;;;-0.28;100.00
3178;BME280;38141;42.666;23.344;2023-12-20T06:56:39;94689.88;;;0.12;100.00
3178;BME280;38141;42.666;23.344;2023-12-20T06:59:08;94694.31;;;0.45;100.00
3178;BME280;38141;42.666;23.344;2023-12-20T07:01:35;94683.38;;;0.85;100.00
3178;BME280;38141;42.666;23.344;2023-12-20T07:04:02;94681.19;;;2.11;100.00
3178;BME280;38141;42.666;23.344;2023-12-20T07:06:29;94677.22;;;2.99;100.00
3178;BME280;38141;42.666;23.344;2023-12-20T07:08:56;94682.47;;;3.72;100.00
3178;BME280;38141;42.666;23.344;2023-12-20T07:11:23;94687.38;;;4.25;100.00
3178;BME280;38141;42.666;23.344;2023-12-20T07:13:50;94681.00;;;4.45;100.00
3178;BME280;38141;42.666;23.344;2023-12-20T07:16:18;94679.06;;;5.21;100.00
3178;BME280;38141;42.666;23.344;2023-12-20T07:18:45;94668.25;;;6.06;100.00
3178;BME280;38141;42.666;23.344;2023-12-20T07:21:12;94680.91;;;5.36;100.00
3178;BME280;38141;42.666;23.344;2023-12-20T07:23:39;94668.00;;;4.75;100.00
3178;BME280;38141;42.666;23.344;2023-12-20T07:26:06;94663.59;;;5.49;100.00
3178;BME280;38141;42.666;23.344;2023-12-20T07:28:33;94663.81;;;5.95;100.00
3178;BME280;38141;42.666;23.344;2023-12-20T07:31:00;94651.47;;;5.74;99.70
3178;BME280;38141;42.666;23.344;2023-12-20T07:33:28;94644.34;;;5.63;100.00
3178;BME280;38141;42.666;23.344;2023-12-20T07:35:55;94659.53;;;5.74;100.00
3178;BME280;38141;42.666;23.344;2023-12-20T07:38:23;94656.63;;;5.29;100.00
3178;BME280;38141;42.666;23.344;2023-12-20T07:40:50;94659.19;;;5.76;100.00
3178;BME280;38141;42.666;23.344;2023-12-20T07:43:17;94670.88;;;6.87;91.62
3178;BME280;38141;42.666;23.344;2023-12-20T07:45:44;94674.53;;;6.33;92.83
3178;BME280;38141;42.666;23.344;2023-12-20T07:48:11;94657.53;;;6.25;91.64
3178;BME280;38141;42.666;23.344;2023-12-20T07:50:40;94666.47;;;6.33;92.38
3178;BME280;38141;42.666;23.344;2023-12-20T07:53:07;94661.56;;;6.81;87.70
3178;BME280;38141;42.666;23.344;2023-12-20T07:55:34;94658.34;;;6.72;86.30
3178;BME280;38141;42.666;23.344;2023-12-20T07:58:01;94656.44;;;6.49;88.16
3178;BME280;38141;42.666;23.344;2023-12-20T08:00:30;94657.78;;;6.40;92.28
3178;BME280;38141;42.666;23.344;2023-12-20T08:02:57;94656.63;;;5.83;96.05
3178;BME280;38141;42.666;23.344;2023-12-20T08:05:24;94648.69;;;6.06;100.00
3178;BME280;38141;42.666;23.344;2023-12-20T08:07:52;94640.84;;;7.04;95.77
3178;BME280;38141;42.666;23.344;2023-12-20T08:10:19;94651.72;;;6.65;93.60
3178;BME280;38141;42.666;23.344;2023-12-20T08:12:46;94629.19;;;7.79;85.75
3178;BME280;38141;42.666;23.344;2023-12-20T08:15:13;94640.19;;;7.96;88.89
3178;BME280;38141;42.666;23.344;2023-12-20T08:17:40;94639.94;;;6.96;86.29
3178;BME280;38141;42.666;23.344;2023-12-20T08:20:08;94636.72;;;6.22;94.29
3178;BME280;38141;42.666;23.344;2023-12-20T08:22:35;94620.28;;;6.47;91.23
3178;BME280;38141;42.666;23.344;2023-12-20T08:25:04;94637.50;;;6.65;94.13
3178;BME280;38141;42.666;23.344;2023-12-20T08:27:31;94649.38;;;8.99;78.67
3178;BME280;38141;42.666;23.344;2023-12-20T08:29:59;94634.84;;;11.47;62.98
3178;BME280;38141;42.666;23.344;2023-12-20T08:32:26;94623.59;;;11.77;58.88
3178;BME280;38141;42.666;23.344;2023-12-20T08:34:53;94631.38;;;11.33;58.87
3178;BME280;38141;42.666;23.344;2023-12-20T08:37:20;94611.69;;;9.71;60.51
3178;BME280;38141;42.666;23.344;2023-12-20T08:39:47;94604.06;;;7.68;68.81
3178;BME280;38141;42.666;23.344;2023-12-20T08:42:16;94618.75;;;7.18;80.09
3178;BME280;38141;42.666;23.344;2023-12-20T08:44:43;94615.41;;;6.75;83.03
3178;BME280;38141;42.666;23.344;2023-12-20T08:47:10;94606.56;;;6.52;89.08
3178;BME280;38141;42.666;23.344;2023-12-20T08:49:38;94570.84;;;6.29;88.42
3178;BME280;38141;42.666;23.344;2023-12-20T08:52:05;94614.91;;;6.05;94.71
3178;BME280;38141;42.666;23.344;2023-12-20T08:54:34;94588.44;;;6.03;97.37
3178;BME280;38141;42.666;23.344;2023-12-20T08:57:01;94600.28;;;5.45;100.00
3178;BME280;38141;42.666;23.344;2023-12-20T08:59:30;94588.97;;;5.35;100.00
3178;BME280;38141;42.666;23.344;2023-12-20T09:01:57;94541.84;;;5.54;100.00
3178;BME280;38141;42.666;23.344;2023-12-20T09:04:24;94564.47;;;5.37;100.00
3178;BME280;38141;42.666;23.344;2023-12-20T09:06:51;94571.50;;;4.91;100.00
3178;BME280;38141;42.666;23.344;2023-12-20T09:09:18;94573.16;;;4.96;100.00
3178;BME280;38141;42.666;23.344;2023-12-20T09:11:45;94563.28;;;5.34;100.00
3178;BME280;38141;42.666;23.344;2023-12-20T09:14:15;94535.34;;;5.01;100.00
3178;BME280;38141;42.666;23.344;2023-12-20T09:16:44;94543.69;;;4.45;100.00
3178;BME280;38141;42.666;23.344;2023-12-20T09:19:11;94526.13;;;4.32;100.00
3178;BME280;38141;42.666;23.344;2023-12-20T09:21:38;94538.78;;;4.82;100.00
3178;BME280;38141;42.666;23.344;2023-12-20T09:24:05;94505.81;;;4.62;100.00
3178;BME280;38141;42.666;23.344;2023-12-20T09:26:33;94502.28;;;4.93;100.00
3178;BME280;38141;42.666;23.344;2023-12-20T09:29:01;94520.47;;;4.68;100.00
3178;BME280;38141;42.666;23.344;2023-12-20T09:31:28;94517.66;;;4.61;100.00
3178;BME280;38141;42.666;23.344;2023-12-20T09:33:56;94510.81;;;4.64;100.00
3178;BME280;38141;42.666;23.344;2023-12-20T09:36:23;94458.50;;;4.35;100.00
3178;BME280;38141;42.666;23.344;2023-12-20T09:38:50;94498.75;;;4.54;100.00
3178;BME280;38141;42.666;23.344;2023-12-20T09:41:18;94461.25;;;4.54;100.00
3178;BME280;38141;42.666;23.344;2023-12-20T09:43:45;94478.47;;;4.72;100.00
3178;BME280;38141;42.666;23.344;2023-12-20T09:46:14;94472.78;;;4.93;100.00
3178;BME280;38141;42.666;23.344;2023-12-20T09:48:45;94480.19;;;5.19;100.00
3178;BME280;38141;42.666;23.344;2023-12-20T09:51:15;94459.03;;;5.14;100.00
3178;BME280;38141;42.666;23.344;2023-12-20T09:53:43;94470.81;;;5.28;100.00
3178;BME280;38141;42.666;23.344;2023-12-20T09:56:11;94455.06;;;5.27;100.00
3178;BME280;38141;42.666;23.344;2023-12-20T09:58:39;94443.16;;;5.44;100.00
3178;BME280;38141;42.666;23.344;2023-12-20T10:01:09;94441.97;;;5.64;100.00
3178;BME280;38141;42.666;23.344;2023-12-20T10:03:39;94445.53;;;6.66;100.00
3178;BME280;38141;42.666;23.344;2023-12-20T10:06:08;94452.00;;;7.95;97.12
3178;BME280;38141;42.666;23.344;2023-12-20T10:08:37;94401.56;;;7.88;88.05
3178;BME280;38141;42.666;23.344;2023-12-20T10:11:04;94426.19;;;9.00;79.40
3178;BME280;38141;42.666;23.344;2023-12-20T10:13:32;94450.31;;;9.44;75.07
3178;BME280;38141;42.666;23.344;2023-12-20T10:16:04;94436.06;;;9.54;73.12
3178;BME280;38141;42.666;23.344;2023-12-20T10:18:33;94426.81;;;9.62;70.50
3178;BME280;38141;42.666;23.344;2023-12-20T10:21:00;94411.31;;;9.34;72.39
3178;BME280;38141;42.666;23.344;2023-12-20T10:23:29;94404.47;;;9.79;71.53
3178;BME280;38141;42.666;23.344;2023-12-20T10:25:58;94409.75;;;9.29;71.54
3178;BME280;38141;42.666;23.344;2023-12-20T10:31:00;94399.03;;;10.85;65.89
3178;BME280;38141;42.666;23.344;2023-12-20T10:33:27;94379.75;;;10.69;66.59
3178;BME280;38141;42.666;23.344;2023-12-20T10:35:55;94402.53;;;11.73;63.99
3178;BME280;38141;42.666;23.344;2023-12-20T10:38:22;94390.22;;;11.61;62.54
3178;BME280;38141;42.666;23.344;2023-12-20T10:40:53;94389.53;;;11.43;62.93
3178;BME280;38141;42.666;23.344;2023-12-20T10:43:23;94379.72;;;11.70;62.41
3178;BME280;38141;42.666;23.344;2023-12-20T10:45:51;94370.66;;;11.98;60.99
3178;BME280;38141;42.666;23.344;2023-12-20T10:48:19;94371.03;;;11.31;61.58
3178;BME280;38141;42.666;23.344;2023-12-20T10:50:48;94371.34;;;11.43;61.78
3178;BME280;38141;42.666;23.344;2023-12-20T10:53:16;94368.16;;;10.76;62.62
3178;BME280;38141;42.666;23.344;2023-12-20T10:55:43;94368.47;;;10.92;63.62
3178;BME280;38141;42.666;23.344;2023-12-20T10:58:11;94356.44;;;11.00;62.88
3178;BME280;38141;42.666;23.344;2023-12-20T11:00:41;94356.41;;;11.10;62.79
3178;BME280;38141;42.666;23.344;2023-12-20T11:03:11;94353.88;;;10.64;63.98
3178;BME280;38141;42.666;23.344;2023-12-20T11:05:44;94352.78;;;9.95;66.62
3178;BME280;38141;42.666;23.344;2023-12-20T11:08:20;94331.84;;;9.31;68.49
3178;BME280;38141;42.666;23.344;2023-12-20T11:10:56;94355.44;;;9.49;70.98
3178;BME280;38141;42.666;23.344;2023-12-20T11:13:30;94307.72;;;8.59;75.22
3178;BME280;38141;42.666;23.344;2023-12-20T11:16:02;94336.75;;;8.90;74.77
3178;BME280;38141;42.666;23.344;2023-12-20T11:18:30;94289.97;;;8.44;76.91
3178;BME280;38141;42.666;23.344;2023-12-20T11:21:05;94308.56;;;8.67;77.46
3178;BME280;38141;42.666;23.344;2023-12-20T11:23:33;94292.25;;;7.80;82.07
3178;BME280;38141;42.666;23.344;2023-12-20T11:26:01;94315.69;;;7.76;87.00
3178;BME280;38141;42.666;23.344;2023-12-20T11:28:29;94282.94;;;7.23;92.06
3178;BME280;38141;42.666;23.344;2023-12-20T11:30:57;94302.94;;;7.22;95.42
3178;BME280;38141;42.666;23.344;2023-12-20T11:33:35;94293.19;;;6.74;100.00
3178;BME280;38141;42.666;23.344;2023-12-20T11:36:07;94292.03;;;6.71;100.00
3178;BME280;38141;42.666;23.344;2023-12-20T11:38:53;94279.66;;;6.63;100.00
3178;BME280;38141;42.666;23.344;2023-12-20T11:41:25;94278.16;;;6.06;100.00
3178;BME280;38141;42.666;23.344;2023-12-20T11:43:53;94273.13;;;6.04;100.00
3178;BME280;38141;42.666;23.344;2023-12-20T11:46:21;94279.47;;;6.19;100.00
3178;BME280;38141;42.666;23.344;2023-12-20T11:48:50;94281.88;;;6.57;100.00
3178;BME280;38141;42.666;23.344;2023-12-20T11:51:17;94262.28;;;6.90;100.00
3178;BME280;38141;42.666;23.344;2023-12-20T11:53:45;94198.91;;;6.93;100.00
3178;BME280;38141;42.666;23.344;2023-12-20T11:56:12;94224.91;;;7.22;100.00
3178;BME280;38141;42.666;23.344;2023-12-20T11:58:39;94251.78;;;7.66;100.00
3178;BME280;38141;42.666;23.344;2023-12-20T12:01:07;94242.06;;;8.16;97.57
3178;BME280;38141;42.666;23.344;2023-12-20T12:03:34;94218.25;;;8.22;93.06
3178;BME280;38141;42.666;23.344;2023-12-20T12:06:03;94209.91;;;7.76;95.72
3178;BME280;38141;42.666;23.344;2023-12-20T12:08:31;94220.28;;;7.77;98.65
3178;BME280;38141;42.666;23.344;2023-12-20T12:10:58;94219.53;;;7.77;98.81
3178;BME280;38141;42.666;23.344;2023-12-20T12:13:25;94215.16;;;8.23;97.94
3178;BME280;38141;42.666;23.344;2023-12-20T12:15:53;94208.19;;;8.12;94.87
3178;BME280;38141;42.666;23.344;2023-12-20T12:18:20;94199.84;;;8.45;92.48
3178;BME280;38141;42.666;23.344;2023-12-20T12:20:47;94197.94;;;8.42;92.75
3178;BME280;38141;42.666;23.344;2023-12-20T12:23:23;94201.75;;;8.30;93.12
3178;BME280;38141;42.666;23.344;2023-12-20T12:25:50;94175.50;;;8.20;93.86
3178;BME280;38141;42.666;23.344;2023-12-20T12:28:21;94168.69;;;8.51;91.25
3178;BME280;38141;42.666;23.344;2023-12-20T12:30:56;94166.72;;;8.37;92.01
3178;BME280;38141;42.666;23.344;2023-12-20T12:33:24;94198.34;;;8.47;93.72
3178;BME280;38141;42.666;23.344;2023-12-20T12:35:51;94148.69;;;8.73;90.01
3178;BME280;38141;42.666;23.344;2023-12-20T12:38:21;94181.84;;;8.67;90.85
3178;BME280;38141;42.666;23.344;2023-12-20T12:40:49;94175.28;;;8.75;88.92
3178;BME280;38141;42.666;23.344;2023-12-20T12:43:18;94181.66;;;8.24;94.99
3178;BME280;38141;42.666;23.344;2023-12-20T12:45:45;94173.31;;;8.54;94.41
3178;BME280;38141;42.666;23.344;2023-12-20T12:48:13;94159.50;;;8.63;91.68
3178;BME280;38141;42.666;23.344;2023-12-20T12:50:41;94123.88;;;8.08;95.10
3178;BME280;38141;42.666;23.344;2023-12-20T12:53:08;94165.50;;;8.17;94.29
3178;BME280;38141;42.666;23.344;2023-12-20T12:55:36;94169.69;;;8.18;95.69
3178;BME280;38141;42.666;23.344;2023-12-20T12:58:04;94181.25;;;7.46;100.00
3178;BME280;38141;42.666;23.344;2023-12-20T13:00:31;94171.53;;;7.93;100.00
3178;BME280;38141;42.666;23.344;2023-12-20T13:02:58;94173.38;;;7.78;100.00
3178;BME280;38141;42.666;23.344;2023-12-20T13:05:28;94109.72;;;7.38;100.00